sensor_id;sensor_type;location;lat;lon;timestamp;P1;durP1;ratioP1;P2;durP2;ratioP2
45806;SDS011;31507;51.494;7.518;2022-10-31T00:00:55;17.55;;;7.22;;
45806;SDS011;31507;51.494;7.518;2022-10-31T00:03:21;19.65;;;7.45;;
45806;SDS011;31507;51.494;7.518;2022-10-31T00:05:48;16.20;;;7.28;;
45806;SDS011;31507;51.494;7.518;2022-10-31T00:08:15;17.08;;;7.35;;
45806;SDS011;31507;51.494;7.518;2022-10-31T00:10:42;16.00;;;6.72;;
45806;SDS011;31507;51.494;7.518;2022-10-31T00:13:09;17.60;;;7.20;;
45806;SDS011;31507;51.494;7.518;2022-10-31T00:15:36;19.40;;;6.75;;
45806;SDS011;31507;51.494;7.518;2022-10-31T00:18:03;19.65;;;7.00;;
45806;SDS011;31507;51.494;7.518;2022-10-31T00:20:29;15.15;;;6.38;;
45806;SDS011;31507;51.494;7.518;2022-10-31T00:22:59;17.13;;;6.93;;
45806;SDS011;31507;51.494;7.518;2022-10-31T00:25:25;13.45;;;6.28;;
45806;SDS011;31507;51.494;7.518;2022-10-31T00:27:51;16.88;;;7.07;;
45806;SDS011;31507;51.494;7.518;2022-10-31T00:30:17;13.38;;;6.53;;
45806;SDS011;31507;51.494;7.518;2022-10-31T00:32:43;21.10;;;7.18;;
45806;SDS011;31507;51.494;7.518;2022-10-31T00:35:08;17.83;;;7.78;;
45806;SDS011;31507;51.494;7.518;2022-10-31T00:37:34;12.90;;;6.30;;
45806;SDS011;31507;51.494;7.518;2022-10-31T00:39:59;18.85;;;6.68;;
45806;SDS011;31507;51.494;7.518;2022-10-31T00:42:25;16.27;;;6.80;;
45806;SDS011;31507;51.494;7.518;2022-10-31T00:44:51;15.63;;;7.00;;
45806;SDS011;31507;51.494;7.518;2022-10-31T00:47:17;14.85;;;7.07;;
45806;SDS011;31507;51.494;7.518;2022-10-31T00:49:42;15.52;;;6.57;;
45806;SDS011;31507;51.494;7.518;2022-10-31T00:52:10;17.67;;;7.55;;
45806;SDS011;31507;51.494;7.518;2022-10-31T00:54:36;18.95;;;7.43;;
45806;SDS011;31507;51.494;7.518;2022-10-31T00:57:02;17.95;;;8.20;;
45806;SDS011;31507;51.494;7.518;2022-10-31T00:59:28;14.88;;;7.55;;
45806;SDS011;31507;51.494;7.518;2022-10-31T01:01:53;17.45;;;7.90;;
45806;SDS011;31507;51.494;7.518;2022-10-31T01:04:19;18.40;;;8.40;;
45806;SDS011;31507;51.494;7.518;2022-10-31T01:06:47;17.30;;;7.05;;
45806;SDS011;31507;51.494;7.518;2022-10-31T01:09:12;20.50;;;7.78;;
45806;SDS011;31507;51.494;7.518;2022-10-31T01:11:38;22.33;;;9.20;;
45806;SDS011;31507;51.494;7.518;2022-10-31T01:14:03;18.17;;;8.30;;
45806;SDS011;31507;51.494;7.518;2022-10-31T01:16:29;24.20;;;7.78;;
45806;SDS011;31507;51.494;7.518;2022-10-31T01:18:55;18.48;;;7.95;;
45806;SDS011;31507;51.494;7.518;2022-10-31T01:21:22;20.33;;;9.07;;
45806;SDS011;31507;51.494;7.518;2022-10-31T01:23:49;16.88;;;7.32;;
45806;SDS011;31507;51.494;7.518;2022-10-31T01:26:17;16.15;;;7.78;;
45806;SDS011;31507;51.494;7.518;2022-10-31T01:31:17;16.10;;;8.45;;
45806;SDS011;31507;51.494;7.518;2022-10-31T01:33:44;24.95;;;8.63;;
45806;SDS011;31507;51.494;7.518;2022-10-31T01:38:46;16.55;;;7.65;;
45806;SDS011;31507;51.494;7.518;2022-10-31T01:41:15;16.55;;;7.60;;
45806;SDS011;31507;51.494;7.518;2022-10-31T01:43:59;23.60;;;9.13;;
45806;SDS011;31507;51.494;7.518;2022-10-31T01:46:29;20.10;;;8.13;;
45806;SDS011;31507;51.494;7.518;2022-10-31T01:49:09;18.20;;;8.45;;
45806;SDS011;31507;51.494;7.518;2022-10-31T01:54:16;15.05;;;8.25;;
45806;SDS011;31507;51.494;7.518;2022-10-31T01:56:48;17.20;;;8.23;;
45806;SDS011;31507;51.494;7.518;2022-10-31T01:59:17;15.30;;;7.75;;
45806;SDS011;31507;51.494;7.518;2022-10-31T02:01:45;12.32;;;7.95;;
45806;SDS011;31507;51.494;7.518;2022-10-31T02:04:12;16.38;;;7.72;;
45806;SDS011;31507;51.494;7.518;2022-10-31T02:06:44;16.95;;;7.22;;
45806;SDS011;31507;51.494;7.518;2022-10-31T02:09:14;12.10;;;7.38;;
45806;SDS011;31507;51.494;7.518;2022-10-31T02:11:41;16.83;;;7.38;;
45806;SDS011;31507;51.494;7.518;2022-10-31T02:14:08;13.35;;;7.22;;
45806;SDS011;31507;51.494;7.518;2022-10-31T02:16:34;14.57;;;7.22;;
45806;SDS011;31507;51.494;7.518;2022-10-31T02:19:00;16.98;;;7.10;;
45806;SDS011;31507;51.494;7.518;2022-10-31T02:32:26;21.55;;;8.38;;
45806;SDS011;31507;51.494;7.518;2022-10-31T02:37:30;25.73;;;9.48;;
45806;SDS011;31507;51.494;7.518;2022-10-31T02:40:32;20.55;;;8.88;;
45806;SDS011;31507;51.494;7.518;2022-10-31T02:45:54;20.65;;;9.07;;
45806;SDS011;31507;51.494;7.518;2022-10-31T02:48:30;20.05;;;9.48;;
45806;SDS011;31507;51.494;7.518;2022-10-31T02:51:00;22.35;;;10.48;;
45806;SDS011;31507;51.494;7.518;2022-10-31T02:53:31;24.48;;;10.95;;
45806;SDS011;31507;51.494;7.518;2022-10-31T02:55:59;20.92;;;11.70;;
45806;SDS011;31507;51.494;7.518;2022-10-31T02:58:40;26.58;;;11.32;;
45806;SDS011;31507;51.494;7.518;2022-10-31T03:07:32;26.13;;;12.27;;
45806;SDS011;31507;51.494;7.518;2022-10-31T03:10:11;23.80;;;12.70;;
45806;SDS011;31507;51.494;7.518;2022-10-31T03:12:48;29.15;;;13.98;;
45806;SDS011;31507;51.494;7.518;2022-10-31T03:15:44;29.63;;;14.82;;
45806;SDS011;31507;51.494;7.518;2022-10-31T03:18:30;32.00;;;13.98;;
45806;SDS011;31507;51.494;7.518;2022-10-31T03:21:10;26.63;;;14.20;;
45806;SDS011;31507;51.494;7.518;2022-10-31T03:23:40;31.65;;;15.20;;
45806;SDS011;31507;51.494;7.518;2022-10-31T03:26:08;28.45;;;14.52;;
45806;SDS011;31507;51.494;7.518;2022-10-31T03:28:43;28.80;;;14.30;;
45806;SDS011;31507;51.494;7.518;2022-10-31T03:31:12;22.85;;;12.65;;
45806;SDS011;31507;51.494;7.518;2022-10-31T03:33:42;28.50;;;13.90;;
45806;SDS011;31507;51.494;7.518;2022-10-31T03:36:10;26.38;;;13.68;;
45806;SDS011;31507;51.494;7.518;2022-10-31T03:38:39;26.27;;;14.20;;
45806;SDS011;31507;51.494;7.518;2022-10-31T03:41:09;34.15;;;15.25;;
45806;SDS011;31507;51.494;7.518;2022-10-31T03:43:51;32.40;;;15.48;;
45806;SDS011;31507;51.494;7.518;2022-10-31T03:46:20;33.10;;;16.15;;
45806;SDS011;31507;51.494;7.518;2022-10-31T03:48:46;33.58;;;16.20;;
45806;SDS011;31507;51.494;7.518;2022-10-31T03:56:29;23.98;;;12.35;;
45806;SDS011;31507;51.494;7.518;2022-10-31T03:59:13;29.75;;;12.90;;
45806;SDS011;31507;51.494;7.518;2022-10-31T04:01:44;30.02;;;12.85;;
45806;SDS011;31507;51.494;7.518;2022-10-31T04:04:14;26.23;;;13.52;;
45806;SDS011;31507;51.494;7.518;2022-10-31T04:06:40;33.67;;;14.00;;
45806;SDS011;31507;51.494;7.518;2022-10-31T04:09:09;32.42;;;14.00;;
45806;SDS011;31507;51.494;7.518;2022-10-31T04:11:40;28.70;;;13.57;;
45806;SDS011;31507;51.494;7.518;2022-10-31T04:14:11;30.80;;;13.88;;
45806;SDS011;31507;51.494;7.518;2022-10-31T04:16:41;31.42;;;14.77;;
45806;SDS011;31507;51.494;7.518;2022-10-31T04:19:08;26.73;;;14.63;;
45806;SDS011;31507;51.494;7.518;2022-10-31T04:21:35;34.10;;;14.63;;
45806;SDS011;31507;51.494;7.518;2022-10-31T04:24:00;34.30;;;16.50;;
45806;SDS011;31507;51.494;7.518;2022-10-31T04:26:26;26.77;;;14.73;;
45806;SDS011;31507;51.494;7.518;2022-10-31T04:28:51;39.08;;;16.10;;
45806;SDS011;31507;51.494;7.518;2022-10-31T04:31:17;32.28;;;15.80;;
45806;SDS011;31507;51.494;7.518;2022-10-31T04:33:42;37.50;;;16.65;;
45806;SDS011;31507;51.494;7.518;2022-10-31T04:36:08;36.20;;;16.67;;
45806;SDS011;31507;51.494;7.518;2022-10-31T04:38:34;37.72;;;18.00;;
45806;SDS011;31507;51.494;7.518;2022-10-31T04:40:59;42.40;;;18.42;;
45806;SDS011;31507;51.494;7.518;2022-10-31T04:43:25;42.40;;;19.08;;
45806;SDS011;31507;51.494;7.518;2022-10-31T04:45:50;38.22;;;19.38;;
45806;SDS011;31507;51.494;7.518;2022-10-31T04:48:16;46.50;;;19.85;;
45806;SDS011;31507;51.494;7.518;2022-10-31T04:50:42;39.17;;;19.70;;
45806;SDS011;31507;51.494;7.518;2022-10-31T04:53:07;42.38;;;18.75;;
45806;SDS011;31507;51.494;7.518;2022-10-31T04:55:34;38.28;;;20.45;;
45806;SDS011;31507;51.494;7.518;2022-10-31T04:58:00;40.78;;;19.23;;
45806;SDS011;31507;51.494;7.518;2022-10-31T05:00:26;44.63;;;20.77;;
45806;SDS011;31507;51.494;7.518;2022-10-31T05:02:53;40.42;;;20.25;;
45806;SDS011;31507;51.494;7.518;2022-10-31T05:05:21;36.70;;;19.48;;
45806;SDS011;31507;51.494;7.518;2022-10-31T05:07:48;41.35;;;19.02;;
45806;SDS011;31507;51.494;7.518;2022-10-31T05:10:16;40.80;;;18.13;;
45806;SDS011;31507;51.494;7.518;2022-10-31T05:12:49;37.63;;;18.67;;
45806;SDS011;31507;51.494;7.518;2022-10-31T05:15:20;36.53;;;16.95;;
45806;SDS011;31507;51.494;7.518;2022-10-31T05:17:47;40.78;;;16.73;;
45806;SDS011;31507;51.494;7.518;2022-10-31T05:20:13;36.42;;;16.15;;
45806;SDS011;31507;51.494;7.518;2022-10-31T05:22:48;41.33;;;17.63;;
45806;SDS011;31507;51.494;7.518;2022-10-31T05:25:16;35.03;;;17.60;;
45806;SDS011;31507;51.494;7.518;2022-10-31T05:27:43;39.92;;;18.05;;
45806;SDS011;31507;51.494;7.518;2022-10-31T05:30:13;40.42;;;18.58;;
45806;SDS011;31507;51.494;7.518;2022-10-31T05:32:43;41.83;;;20.38;;
45806;SDS011;31507;51.494;7.518;2022-10-31T05:35:10;37.33;;;19.98;;
45806;SDS011;31507;51.494;7.518;2022-10-31T05:37:38;42.65;;;19.73;;
45806;SDS011;31507;51.494;7.518;2022-10-31T05:40:04;39.20;;;18.88;;
45806;SDS011;31507;51.494;7.518;2022-10-31T05:42:31;37.60;;;19.50;;
45806;SDS011;31507;51.494;7.518;2022-10-31T05:44:57;40.25;;;20.23;;
45806;SDS011;31507;51.494;7.518;2022-10-31T05:47:22;39.03;;;18.63;;
45806;SDS011;31507;51.494;7.518;2022-10-31T05:49:48;42.38;;;18.65;;
45806;SDS011;31507;51.494;7.518;2022-10-31T05:52:14;46.80;;;19.05;;
45806;SDS011;31507;51.494;7.518;2022-10-31T05:54:39;38.65;;;19.75;;
45806;SDS011;31507;51.494;7.518;2022-10-31T05:57:05;42.03;;;20.20;;
45806;SDS011;31507;51.494;7.518;2022-10-31T05:59:31;43.70;;;21.70;;
45806;SDS011;31507;51.494;7.518;2022-10-31T06:01:57;46.83;;;21.42;;
45806;SDS011;31507;51.494;7.518;2022-10-31T06:04:23;45.75;;;23.42;;
45806;SDS011;31507;51.494;7.518;2022-10-31T06:06:48;55.35;;;23.13;;
45806;SDS011;31507;51.494;7.518;2022-10-31T06:09:14;48.20;;;22.60;;
45806;SDS011;31507;51.494;7.518;2022-10-31T06:11:39;51.15;;;22.48;;
45806;SDS011;31507;51.494;7.518;2022-10-31T06:14:05;44.97;;;21.98;;
45806;SDS011;31507;51.494;7.518;2022-10-31T06:16:31;52.53;;;22.73;;
45806;SDS011;31507;51.494;7.518;2022-10-31T06:18:56;40.75;;;22.33;;
45806;SDS011;31507;51.494;7.518;2022-10-31T06:21:22;56.15;;;24.88;;
45806;SDS011;31507;51.494;7.518;2022-10-31T06:23:48;55.30;;;24.98;;
45806;SDS011;31507;51.494;7.518;2022-10-31T06:26:14;56.55;;;24.55;;
45806;SDS011;31507;51.494;7.518;2022-10-31T06:28:40;68.00;;;25.38;;
45806;SDS011;31507;51.494;7.518;2022-10-31T06:31:05;54.30;;;24.38;;
45806;SDS011;31507;51.494;7.518;2022-10-31T06:33:31;55.60;;;24.65;;
45806;SDS011;31507;51.494;7.518;2022-10-31T06:35:57;45.60;;;23.58;;
45806;SDS011;31507;51.494;7.518;2022-10-31T06:38:22;51.60;;;24.52;;
45806;SDS011;31507;51.494;7.518;2022-10-31T06:40:50;52.60;;;25.30;;
45806;SDS011;31507;51.494;7.518;2022-10-31T06:43:15;58.72;;;25.75;;
45806;SDS011;31507;51.494;7.518;2022-10-31T06:45:41;59.25;;;26.20;;
45806;SDS011;31507;51.494;7.518;2022-10-31T06:48:06;52.83;;;26.70;;
45806;SDS011;31507;51.494;7.518;2022-10-31T06:50:32;61.35;;;26.63;;
45806;SDS011;31507;51.494;7.518;2022-10-31T06:52:58;56.28;;;27.13;;
45806;SDS011;31507;51.494;7.518;2022-10-31T06:55:24;49.20;;;25.85;;
45806;SDS011;31507;51.494;7.518;2022-10-31T07:00:16;51.92;;;23.95;;
45806;SDS011;31507;51.494;7.518;2022-10-31T07:02:42;49.90;;;23.50;;
45806;SDS011;31507;51.494;7.518;2022-10-31T07:05:08;41.67;;;21.98;;
45806;SDS011;31507;51.494;7.518;2022-10-31T07:07:33;44.17;;;21.58;;
45806;SDS011;31507;51.494;7.518;2022-10-31T07:09:59;46.22;;;22.25;;
45806;SDS011;31507;51.494;7.518;2022-10-31T07:12:24;41.35;;;21.63;;
45806;SDS011;31507;51.494;7.518;2022-10-31T07:14:50;42.60;;;21.27;;
45806;SDS011;31507;51.494;7.518;2022-10-31T07:17:15;39.50;;;19.58;;
45806;SDS011;31507;51.494;7.518;2022-10-31T07:19:41;37.05;;;20.55;;
45806;SDS011;31507;51.494;7.518;2022-10-31T07:22:07;41.08;;;19.60;;
45806;SDS011;31507;51.494;7.518;2022-10-31T07:24:37;41.35;;;20.65;;
45806;SDS011;31507;51.494;7.518;2022-10-31T07:27:07;39.00;;;18.88;;
45806;SDS011;31507;51.494;7.518;2022-10-31T07:29:32;42.83;;;19.35;;
45806;SDS011;31507;51.494;7.518;2022-10-31T07:31:58;33.45;;;17.83;;
45806;SDS011;31507;51.494;7.518;2022-10-31T07:34:23;42.00;;;19.65;;
45806;SDS011;31507;51.494;7.518;2022-10-31T07:36:50;34.55;;;17.38;;
45806;SDS011;31507;51.494;7.518;2022-10-31T07:39:16;39.08;;;18.95;;
45806;SDS011;31507;51.494;7.518;2022-10-31T07:41:44;36.42;;;16.52;;
45806;SDS011;31507;51.494;7.518;2022-10-31T07:44:09;41.33;;;16.25;;
45806;SDS011;31507;51.494;7.518;2022-10-31T07:46:35;42.10;;;17.85;;
45806;SDS011;31507;51.494;7.518;2022-10-31T07:49:01;35.65;;;17.08;;
45806;SDS011;31507;51.494;7.518;2022-10-31T07:51:27;41.10;;;15.35;;
45806;SDS011;31507;51.494;7.518;2022-10-31T07:53:53;41.15;;;15.60;;
45806;SDS011;31507;51.494;7.518;2022-10-31T07:56:18;35.60;;;15.75;;
45806;SDS011;31507;51.494;7.518;2022-10-31T07:58:44;35.42;;;15.27;;
45806;SDS011;31507;51.494;7.518;2022-10-31T08:01:10;45.05;;;15.65;;
45806;SDS011;31507;51.494;7.518;2022-10-31T08:03:36;42.70;;;16.08;;
45806;SDS011;31507;51.494;7.518;2022-10-31T08:06:02;43.92;;;15.55;;
45806;SDS011;31507;51.494;7.518;2022-10-31T08:08:28;87.88;;;19.88;;
45806;SDS011;31507;51.494;7.518;2022-10-31T08:10:54;46.70;;;14.43;;
45806;SDS011;31507;51.494;7.518;2022-10-31T08:13:20;33.70;;;13.35;;
45806;SDS011;31507;51.494;7.518;2022-10-31T08:15:45;27.50;;;12.88;;
45806;SDS011;31507;51.494;7.518;2022-10-31T08:18:15;24.17;;;12.35;;
45806;SDS011;31507;51.494;7.518;2022-10-31T08:20:41;62.63;;;15.30;;
45806;SDS011;31507;51.494;7.518;2022-10-31T08:23:08;39.70;;;14.27;;
45806;SDS011;31507;51.494;7.518;2022-10-31T08:25:34;40.90;;;14.23;;
45806;SDS011;31507;51.494;7.518;2022-10-31T08:28:01;26.95;;;12.38;;
45806;SDS011;31507;51.494;7.518;2022-10-31T08:30:28;38.20;;;12.63;;
45806;SDS011;31507;51.494;7.518;2022-10-31T08:33:05;71.60;;;15.70;;
45806;SDS011;31507;51.494;7.518;2022-10-31T08:35:34;90.38;;;16.13;;
45806;SDS011;31507;51.494;7.518;2022-10-31T08:38:00;36.30;;;12.88;;
45806;SDS011;31507;51.494;7.518;2022-10-31T08:40:27;25.45;;;11.70;;
45806;SDS011;31507;51.494;7.518;2022-10-31T08:43:01;33.13;;;12.90;;
45806;SDS011;31507;51.494;7.518;2022-10-31T08:45:32;30.45;;;12.82;;
45806;SDS011;31507;51.494;7.518;2022-10-31T08:47:59;29.55;;;11.60;;
45806;SDS011;31507;51.494;7.518;2022-10-31T08:50:31;31.50;;;11.85;;
45806;SDS011;31507;51.494;7.518;2022-10-31T08:53:05;26.88;;;10.50;;
45806;SDS011;31507;51.494;7.518;2022-10-31T08:55:35;31.40;;;11.73;;
45806;SDS011;31507;51.494;7.518;2022-10-31T08:58:02;24.73;;;11.35;;
45806;SDS011;31507;51.494;7.518;2022-10-31T09:00:30;21.38;;;10.85;;
45806;SDS011;31507;51.494;7.518;2022-10-31T09:02:56;28.75;;;11.65;;
45806;SDS011;31507;51.494;7.518;2022-10-31T09:05:23;25.27;;;11.25;;
45806;SDS011;31507;51.494;7.518;2022-10-31T09:07:49;30.10;;;13.00;;
45806;SDS011;31507;51.494;7.518;2022-10-31T09:10:14;26.80;;;12.63;;
45806;SDS011;31507;51.494;7.518;2022-10-31T09:12:40;31.27;;;12.15;;
45806;SDS011;31507;51.494;7.518;2022-10-31T09:15:06;24.40;;;11.65;;
45806;SDS011;31507;51.494;7.518;2022-10-31T09:17:32;26.17;;;12.13;;
45806;SDS011;31507;51.494;7.518;2022-10-31T09:19:58;32.40;;;13.00;;
45806;SDS011;31507;51.494;7.518;2022-10-31T09:22:23;57.70;;;14.38;;
45806;SDS011;31507;51.494;7.518;2022-10-31T09:24:49;41.67;;;12.98;;
45806;SDS011;31507;51.494;7.518;2022-10-31T09:27:15;46.45;;;14.43;;
45806;SDS011;31507;51.494;7.518;2022-10-31T09:29:40;35.75;;;13.70;;
45806;SDS011;31507;51.494;7.518;2022-10-31T09:32:06;25.77;;;12.73;;
45806;SDS011;31507;51.494;7.518;2022-10-31T09:34:32;33.42;;;12.45;;
45806;SDS011;31507;51.494;7.518;2022-10-31T09:36:57;27.00;;;12.80;;
45806;SDS011;31507;51.494;7.518;2022-10-31T09:39:23;36.22;;;13.82;;
45806;SDS011;31507;51.494;7.518;2022-10-31T09:44:28;34.70;;;14.20;;
45806;SDS011;31507;51.494;7.518;2022-10-31T09:47:05;32.88;;;14.27;;
45806;SDS011;31507;51.494;7.518;2022-10-31T09:49:53;33.92;;;14.20;;
45806;SDS011;31507;51.494;7.518;2022-10-31T09:52:38;36.70;;;14.05;;
45806;SDS011;31507;51.494;7.518;2022-10-31T09:55:14;37.20;;;14.68;;
45806;SDS011;31507;51.494;7.518;2022-10-31T09:57:44;41.10;;;14.10;;
45806;SDS011;31507;51.494;7.518;2022-10-31T10:00:20;29.65;;;14.02;;
45806;SDS011;31507;51.494;7.518;2022-10-31T10:02:49;33.83;;;14.02;;
45806;SDS011;31507;51.494;7.518;2022-10-31T10:05:28;30.48;;;14.85;;
45806;SDS011;31507;51.494;7.518;2022-10-31T10:08:11;33.08;;;15.43;;
45806;SDS011;31507;51.494;7.518;2022-10-31T10:10:52;34.47;;;15.23;;
45806;SDS011;31507;51.494;7.518;2022-10-31T10:24:01;31.55;;;15.80;;
45806;SDS011;31507;51.494;7.518;2022-10-31T10:26:49;33.47;;;16.33;;
45806;SDS011;31507;51.494;7.518;2022-10-31T10:32:19;35.53;;;16.50;;
45806;SDS011;31507;51.494;7.518;2022-10-31T10:34:50;28.63;;;16.40;;
45806;SDS011;31507;51.494;7.518;2022-10-31T10:37:36;38.13;;;17.27;;
45806;SDS011;31507;51.494;7.518;2022-10-31T10:40:16;32.10;;;16.88;;
45806;SDS011;31507;51.494;7.518;2022-10-31T10:42:45;34.60;;;15.82;;
45806;SDS011;31507;51.494;7.518;2022-10-31T10:45:49;39.65;;;17.05;;
45806;SDS011;31507;51.494;7.518;2022-10-31T10:48:50;28.05;;;16.15;;
45806;SDS011;31507;51.494;7.518;2022-10-31T10:51:38;35.92;;;17.27;;
45806;SDS011;31507;51.494;7.518;2022-10-31T11:00:20;34.38;;;16.00;;
45806;SDS011;31507;51.494;7.518;2022-10-31T11:02:48;41.70;;;16.85;;
45806;SDS011;31507;51.494;7.518;2022-10-31T11:07:50;36.83;;;16.95;;
45806;SDS011;31507;51.494;7.518;2022-10-31T11:10:16;31.17;;;16.10;;
45806;SDS011;31507;51.494;7.518;2022-10-31T11:12:44;28.98;;;16.00;;
45806;SDS011;31507;51.494;7.518;2022-10-31T11:15:22;26.75;;;14.48;;
45806;SDS011;31507;51.494;7.518;2022-10-31T11:17:51;29.52;;;14.82;;
45806;SDS011;31507;51.494;7.518;2022-10-31T11:22:45;29.27;;;14.75;;
45806;SDS011;31507;51.494;7.518;2022-10-31T11:25:24;24.42;;;14.48;;
45806;SDS011;31507;51.494;7.518;2022-10-31T11:30:54;30.58;;;14.48;;
45806;SDS011;31507;51.494;7.518;2022-10-31T11:33:32;28.75;;;13.65;;
45806;SDS011;31507;51.494;7.518;2022-10-31T11:36:13;23.73;;;12.85;;
45806;SDS011;31507;51.494;7.518;2022-10-31T11:38:51;26.80;;;13.35;;
45806;SDS011;31507;51.494;7.518;2022-10-31T11:41:18;32.33;;;14.05;;
45806;SDS011;31507;51.494;7.518;2022-10-31T11:43:59;23.90;;;12.90;;
45806;SDS011;31507;51.494;7.518;2022-10-31T11:46:45;30.08;;;13.15;;
45806;SDS011;31507;51.494;7.518;2022-10-31T11:49:17;25.50;;;12.65;;
45806;SDS011;31507;51.494;7.518;2022-10-31T11:51:51;18.00;;;10.45;;
45806;SDS011;31507;51.494;7.518;2022-10-31T11:54:24;29.70;;;10.77;;
45806;SDS011;31507;51.494;7.518;2022-10-31T11:56:52;25.70;;;9.43;;
45806;SDS011;31507;51.494;7.518;2022-10-31T12:01:50;25.70;;;11.60;;
45806;SDS011;31507;51.494;7.518;2022-10-31T12:04:16;26.38;;;10.98;;
45806;SDS011;31507;51.494;7.518;2022-10-31T12:06:43;26.75;;;11.00;;
45806;SDS011;31507;51.494;7.518;2022-10-31T12:09:21;35.40;;;11.95;;
45806;SDS011;31507;51.494;7.518;2022-10-31T12:11:58;20.38;;;10.05;;
45806;SDS011;31507;51.494;7.518;2022-10-31T12:17:16;25.27;;;9.65;;
45806;SDS011;31507;51.494;7.518;2022-10-31T12:20:03;20.60;;;9.45;;
45806;SDS011;31507;51.494;7.518;2022-10-31T12:25:24;21.38;;;8.70;;
45806;SDS011;31507;51.494;7.518;2022-10-31T12:28:11;25.40;;;8.45;;
45806;SDS011;31507;51.494;7.518;2022-10-31T12:31:10;22.90;;;7.63;;
45806;SDS011;31507;51.494;7.518;2022-10-31T12:39:18;18.95;;;8.07;;
45806;SDS011;31507;51.494;7.518;2022-10-31T12:42:02;23.75;;;8.02;;
45806;SDS011;31507;51.494;7.518;2022-10-31T12:58:43;23.75;;;8.75;;
45806;SDS011;31507;51.494;7.518;2022-10-31T13:01:16;26.52;;;8.10;;
45806;SDS011;31507;51.494;7.518;2022-10-31T13:06:21;18.20;;;7.32;;
45806;SDS011;31507;51.494;7.518;2022-10-31T13:08:53;21.83;;;8.02;;
45806;SDS011;31507;51.494;7.518;2022-10-31T13:11:30;125.03;;;18.08;;
45806;SDS011;31507;51.494;7.518;2022-10-31T13:17:06;14.88;;;7.13;;
45806;SDS011;31507;51.494;7.518;2022-10-31T13:19:43;20.67;;;7.63;;
45806;SDS011;31507;51.494;7.518;2022-10-31T13:22:18;20.05;;;7.50;;
45806;SDS011;31507;51.494;7.518;2022-10-31T13:27:26;17.27;;;7.63;;
45806;SDS011;31507;51.494;7.518;2022-10-31T13:30:17;28.45;;;8.25;;
45806;SDS011;31507;51.494;7.518;2022-10-31T13:41:09;14.98;;;7.20;;
45806;SDS011;31507;51.494;7.518;2022-10-31T13:48:56;18.63;;;7.05;;
45806;SDS011;31507;51.494;7.518;2022-10-31T13:51:26;18.75;;;7.15;;
45806;SDS011;31507;51.494;7.518;2022-10-31T13:56:21;15.93;;;7.28;;
45806;SDS011;31507;51.494;7.518;2022-10-31T14:01:29;26.75;;;7.38;;
45806;SDS011;31507;51.494;7.518;2022-10-31T14:04:06;20.08;;;7.47;;
45806;SDS011;31507;51.494;7.518;2022-10-31T14:06:44;31.75;;;9.05;;
45806;SDS011;31507;51.494;7.518;2022-10-31T14:09:18;17.63;;;7.70;;
45806;SDS011;31507;51.494;7.518;2022-10-31T14:11:47;20.27;;;7.07;;
45806;SDS011;31507;51.494;7.518;2022-10-31T14:14:14;22.45;;;6.95;;
45806;SDS011;31507;51.494;7.518;2022-10-31T14:16:40;21.48;;;8.32;;
45806;SDS011;31507;51.494;7.518;2022-10-31T14:19:16;18.63;;;7.22;;
45806;SDS011;31507;51.494;7.518;2022-10-31T14:21:45;17.45;;;7.20;;
45806;SDS011;31507;51.494;7.518;2022-10-31T14:31:44;30.70;;;7.00;;
45806;SDS011;31507;51.494;7.518;2022-10-31T14:34:30;21.60;;;7.43;;
45806;SDS011;31507;51.494;7.518;2022-10-31T14:53:22;20.83;;;6.80;;
45806;SDS011;31507;51.494;7.518;2022-10-31T14:55:49;20.17;;;6.55;;
45806;SDS011;31507;51.494;7.518;2022-10-31T14:58:20;26.27;;;6.70;;
45806;SDS011;31507;51.494;7.518;2022-10-31T15:00:50;20.35;;;8.15;;
45806;SDS011;31507;51.494;7.518;2022-10-31T15:03:24;17.30;;;7.85;;
45806;SDS011;31507;51.494;7.518;2022-10-31T15:05:58;17.15;;;6.50;;
45806;SDS011;31507;51.494;7.518;2022-10-31T15:08:31;24.20;;;7.57;;
45806;SDS011;31507;51.494;7.518;2022-10-31T15:11:18;21.42;;;6.97;;
45806;SDS011;31507;51.494;7.518;2022-10-31T15:13:47;23.10;;;7.65;;
45806;SDS011;31507;51.494;7.518;2022-10-31T15:16:35;29.25;;;7.35;;
45806;SDS011;31507;51.494;7.518;2022-10-31T15:19:06;16.42;;;6.85;;
45806;SDS011;31507;51.494;7.518;2022-10-31T15:21:41;21.48;;;6.95;;
45806;SDS011;31507;51.494;7.518;2022-10-31T15:24:13;22.73;;;6.97;;
45806;SDS011;31507;51.494;7.518;2022-10-31T15:26:43;18.42;;;6.38;;
45806;SDS011;31507;51.494;7.518;2022-10-31T15:29:12;14.82;;;6.25;;
45806;SDS011;31507;51.494;7.518;2022-10-31T15:31:55;27.00;;;6.95;;
45806;SDS011;31507;51.494;7.518;2022-10-31T15:34:38;22.08;;;5.95;;
45806;SDS011;31507;51.494;7.518;2022-10-31T15:37:12;20.38;;;6.55;;
45806;SDS011;31507;51.494;7.518;2022-10-31T15:39:39;12.90;;;5.88;;
45806;SDS011;31507;51.494;7.518;2022-10-31T15:42:14;22.85;;;6.45;;
45806;SDS011;31507;51.494;7.518;2022-10-31T15:45:00;13.10;;;6.28;;
45806;SDS011;31507;51.494;7.518;2022-10-31T15:47:30;14.65;;;6.90;;
45806;SDS011;31507;51.494;7.518;2022-10-31T15:49:58;16.48;;;6.22;;
45806;SDS011;31507;51.494;7.518;2022-10-31T15:52:31;24.10;;;6.63;;
45806;SDS011;31507;51.494;7.518;2022-10-31T15:55:02;15.38;;;6.63;;
45806;SDS011;31507;51.494;7.518;2022-10-31T15:57:30;21.40;;;6.60;;
45806;SDS011;31507;51.494;7.518;2022-10-31T15:59:56;16.75;;;8.43;;
45806;SDS011;31507;51.494;7.518;2022-10-31T16:02:24;17.55;;;6.88;;
45806;SDS011;31507;51.494;7.518;2022-10-31T16:05:01;20.27;;;6.88;;
45806;SDS011;31507;51.494;7.518;2022-10-31T16:07:27;23.25;;;7.28;;
45806;SDS011;31507;51.494;7.518;2022-10-31T16:12:20;18.23;;;6.72;;
45806;SDS011;31507;51.494;7.518;2022-10-31T16:14:47;19.25;;;7.72;;
45806;SDS011;31507;51.494;7.518;2022-10-31T16:17:15;21.60;;;7.45;;
45806;SDS011;31507;51.494;7.518;2022-10-31T16:19:50;23.00;;;7.85;;
45806;SDS011;31507;51.494;7.518;2022-10-31T16:22:26;19.20;;;7.10;;
45806;SDS011;31507;51.494;7.518;2022-10-31T16:24:55;19.25;;;6.40;;
45806;SDS011;31507;51.494;7.518;2022-10-31T16:27:36;16.85;;;6.50;;
45806;SDS011;31507;51.494;7.518;2022-10-31T16:30:26;18.08;;;7.07;;
45806;SDS011;31507;51.494;7.518;2022-10-31T16:33:03;14.60;;;6.15;;
45806;SDS011;31507;51.494;7.518;2022-10-31T16:35:34;20.80;;;7.30;;
45806;SDS011;31507;51.494;7.518;2022-10-31T16:38:02;20.33;;;5.45;;
45806;SDS011;31507;51.494;7.518;2022-10-31T16:40:29;19.95;;;6.07;;
45806;SDS011;31507;51.494;7.518;2022-10-31T16:42:56;21.10;;;5.38;;
45806;SDS011;31507;51.494;7.518;2022-10-31T16:45:24;15.82;;;5.22;;
45806;SDS011;31507;51.494;7.518;2022-10-31T16:47:52;10.70;;;4.97;;
45806;SDS011;31507;51.494;7.518;2022-10-31T16:50:19;12.70;;;4.97;;
45806;SDS011;31507;51.494;7.518;2022-10-31T16:52:45;12.68;;;4.65;;
45806;SDS011;31507;51.494;7.518;2022-10-31T16:55:12;16.85;;;4.72;;
45806;SDS011;31507;51.494;7.518;2022-10-31T16:57:40;16.30;;;4.60;;
45806;SDS011;31507;51.494;7.518;2022-10-31T17:00:09;14.07;;;4.40;;
45806;SDS011;31507;51.494;7.518;2022-10-31T17:02:38;11.30;;;4.30;;
45806;SDS011;31507;51.494;7.518;2022-10-31T17:05:04;16.85;;;4.20;;
45806;SDS011;31507;51.494;7.518;2022-10-31T17:07:30;14.10;;;3.90;;
45806;SDS011;31507;51.494;7.518;2022-10-31T17:09:55;14.25;;;4.30;;
45806;SDS011;31507;51.494;7.518;2022-10-31T17:12:21;16.95;;;3.85;;